Coleharbor, North Dakota
Current Conditions -  °F | °C
As of 6:15 AM on Friday 31 Oct 2014 (Local Time) from KHZE Reporting Station
Scattered Clouds Scattered Clouds  
Wind Chill:   Ceiling: Unl
Heat Index: 18°   Visibility: 10mi
Dew Point: 14°   Wind: 6mph
Humidity: 86%   Direction: 100°E
Pressure: 30.51"   Gusts: NA
Location:  47.54°N, 101.22°W
Report Text: KHZE 311115Z AUTO 10005KT 10SM SCT024 M08/M10 A3051 RMK AO2
Loading
Personal Weather Stations






























Interactive Weather Map New forecast layout! Learn more

10-Day Weather Forecast

Advertisements
Track Severe Weather on mobile